Terminal Aerodrome Forecast
Issued by NWS

Home | Current Version | Previous Version | Text Only | Print | Product List | Glossary On
Versions: 1 2 3 4 5 6 7 8 9 10 11 12 13
000
FTUS42 TJSJ 222320
TAFKPK
TAF
TKPK 222320Z 2300/2324 07012KT P6SM VCSH FEW022
     FM231330 09012KT P6SM FEW024
     FM232300 07009KT P6SM FEW018
      AMD NOT SKED 2302/2311=

USA.gov is the U.S. government's official web portal to all federal, state and local government web resources and services.